Time;durP1;ratioP1;P1;durP2;ratioP2;P2;SDS_P1;SDS_P2;PMS_P1;PMS_P2;Temp;Humidity;BMP_temperature;BMP_pressure;BME280_temperature;BME280_humidity;BME280_pressure;Samples;Min_cycle;Max_cycle;Signal;HPM_P1;HPM_P2
2023/06/20 00:00:17;;;;;;;10.60;9.50;;;;;;;16.26;68.28;100168.20;131392;1253;107527;-80
2023/06/20 00:03:42;;;;;;;10.70;9.60;;;;;;;16.21;68.39;100172.21;131119;1253;110240;-81
2023/06/20 00:06:47;;;;;;;10.90;9.80;;;;;;;16.15;68.49;100177.11;131105;1253;107472;-80
2023/06/20 00:09:53;;;;;;;10.90;9.80;;;;;;;16.11;68.63;100175.43;131166;1250;107522;-80
2023/06/20 00:12:59;;;;;;;10.70;9.60;;;;;;;16.09;68.60;100176.90;131186;1251;107521;-80
2023/06/20 00:16:05;;;;;;;9.40;8.50;;;;;;;16.04;68.76;100182.92;131159;1251;107404;-79
2023/06/20 00:19:10;;;;;;;9.60;8.60;;;;;;;15.99;68.82;100178.52;131220;1251;107412;-80
2023/06/20 00:22:16;;;;;;;9.50;8.60;;;;;;;15.97;68.89;100179.41;131143;1249;107539;-80
2023/06/20 00:25:21;;;;;;;9.30;8.40;;;;;;;15.98;68.92;100179.48;131255;1250;107266;-79
2023/06/20 00:28:27;;;;;;;9.30;8.40;;;;;;;16.01;68.91;100180.29;131370;1251;107610;-80
2023/06/20 00:31:32;;;;;;;10.60;9.40;;;;;;;16.00;69.08;100181.06;131324;1253;109289;-79
2023/06/20 00:34:38;;;;;;;10.30;9.20;;;;;;;15.99;68.94;100177.08;131214;1250;107293;-80
2023/06/20 00:37:43;;;;;;;10.80;9.60;;;;;;;15.96;68.98;100179.11;131068;1253;107463;-80
2023/06/20 00:40:52;;;;;;;10.50;9.40;;;;;;;15.89;69.34;100173.54;131151;1253;107420;-80
2023/06/20 00:43:57;;;;;;;10.10;9.10;;;;;;;15.83;69.30;100177.77;131280;1253;107364;-80
2023/06/20 00:47:03;;;;;;;9.40;8.40;;;;;;;15.80;69.49;100181.23;131367;1251;107433;-81
2023/06/20 00:50:10;;;;;;;9.40;8.50;;;;;;;15.79;69.55;100179.35;131369;1251;107328;-80
2023/06/20 00:53:16;;;;;;;9.70;8.70;;;;;;;15.80;69.57;100183.60;131168;1256;107565;-80
2023/06/20 00:56:22;;;;;;;10.80;8.90;;;;;;;15.82;69.70;100186.41;131312;1266;107252;-80
2023/06/20 00:59:28;;;;;;;9.80;8.80;;;;;;;15.84;69.87;100187.79;131356;1250;107492;-80
2023/06/20 01:02:33;;;;;;;10.10;9.00;;;;;;;15.83;69.71;100186.45;131248;1251;107261;-78
2023/06/20 01:05:40;;;;;;;10.70;9.20;;;;;;;15.82;69.73;100186.02;131371;1253;107020;-79
2023/06/20 01:08:55;;;;;;;11.00;9.30;;;;;;;15.79;69.81;100186.51;131003;1256;107665;-79
2023/06/20 01:12:04;;;;;;;11.90;9.00;;;;;;;15.76;69.96;100187.63;131001;1256;107517;-81
2023/06/20 01:15:18;;;;;;;10.70;9.40;;;;;;;15.73;70.26;100182.94;131206;1253;107608;-80
2023/06/20 01:18:35;;;;;;;9.90;8.50;;;;;;;15.66;70.02;100177.38;131222;1251;107429;-79
2023/06/20 01:21:51;;;;;;;9.60;8.40;;;;;;;15.60;70.28;100173.54;131167;1253;107489;-79
2023/06/20 01:25:02;;;;;;;9.10;8.20;;;;;;;15.59;70.37;100174.84;131028;1253;107588;-79
2023/06/20 01:28:26;;;;;;;10.20;9.10;;;;;;;15.59;70.29;100176.04;131160;1253;107392;-79
2023/06/20 01:31:36;;;;;;;10.30;9.20;;;;;;;15.57;70.34;100173.05;131162;1253;107525;-80
2023/06/20 01:34:49;;;;;;;10.50;9.30;;;;;;;15.58;70.52;100168.09;131097;1257;106712;-79
2023/06/20 01:38:03;;;;;;;11.20;9.00;;;;;;;15.58;70.47;100173.88;131198;1251;107526;-80
2023/06/20 01:41:10;;;;;;;11.20;9.90;;;;;;;15.56;70.52;100172.95;131105;1256;107305;-79
2023/06/20 01:44:18;;;;;;;11.60;9.90;;;;;;;15.56;70.72;100175.20;130964;1256;107567;-79
2023/06/20 01:47:25;;;;;;;11.00;9.80;;;;;;;15.56;70.70;100180.32;131224;1256;107540;-79
2023/06/20 01:50:33;;;;;;;9.50;8.50;;;;;;;15.55;70.61;100173.67;131069;1257;107593;-79
2023/06/20 01:53:42;;;;;;;9.40;8.40;;;;;;;15.58;71.01;100174.38;131279;1250;107640;-79
2023/06/20 01:56:49;;;;;;;10.50;9.10;;;;;;;15.64;71.07;100175.36;131279;1254;107433;-79
2023/06/20 01:59:56;;;;;;;10.10;9.00;;;;;;;15.70;71.01;100175.70;131146;1256;107560;-82
2023/06/20 02:03:03;;;;;;;10.80;9.70;;;;;;;15.78;71.10;100181.27;131174;1251;107521;-82
2023/06/20 02:06:10;;;;;;;10.80;9.70;;;;;;;15.83;71.09;100181.16;131082;1254;185022;-81
2023/06/20 02:09:18;;;;;;;10.50;9.40;;;;;;;15.84;71.18;100185.98;131036;1250;107226;-81
2023/06/20 02:12:24;;;;;;;11.30;9.70;;;;;;;15.86;71.35;100182.81;131322;1254;107601;-81
2023/06/20 02:15:31;;;;;;;10.70;9.60;;;;;;;15.86;71.56;100182.02;131046;1260;107543;-82
2023/06/20 02:18:36;;;;;;;9.90;8.80;;;;;;;15.89;71.71;100183.92;131283;1251;108572;-81
2023/06/20 02:21:45;;;;;;;9.60;8.60;;;;;;;15.92;71.77;100181.41;131132;1250;107396;-80
2023/06/20 02:24:52;;;;;;;10.70;9.50;;;;;;;15.93;71.90;100182.64;130897;1250;107505;-80
2023/06/20 02:27:59;;;;;;;11.00;9.80;;;;;;;15.99;72.08;100181.75;130985;1259;106774;-81
2023/06/20 02:31:07;;;;;;;10.90;9.80;;;;;;;16.05;72.17;100180.13;131039;1251;107537;-78
2023/06/20 02:34:18;;;;;;;10.90;9.80;;;;;;;16.11;72.07;100177.79;131028;1253;107536;-79
2023/06/20 02:37:27;;;;;;;11.50;9.90;;;;;;;16.14;72.38;100179.92;131151;1256;107568;-81
2023/06/20 02:40:36;;;;;;;11.10;9.90;;;;;;;16.19;72.43;100178.98;131116;1256;107553;-81
2023/06/20 02:43:41;;;;;;;10.80;9.30;;;;;;;16.22;72.49;100177.84;131318;1251;107507;-81
2023/06/20 02:46:57;;;;;;;9.70;8.30;;;;;;;16.20;72.39;100179.20;131051;1256;107350;-81
2023/06/20 02:50:11;;;;;;;10.40;9.30;;;;;;;16.19;72.55;100174.68;131349;1263;107270;-81
2023/06/20 02:53:22;;;;;;;10.30;9.30;;;;;;;16.18;72.47;100170.23;131287;1253;107698;-81
2023/06/20 02:56:32;;;;;;;11.50;10.00;;;;;;;16.19;72.58;100166.58;131281;1253;107528;-81
2023/06/20 02:59:42;;;;;;;10.50;9.40;;;;;;;16.18;72.65;100168.62;131106;1253;107411;-81
2023/06/20 03:02:54;;;;;;;11.00;9.90;;;;;;;16.18;72.78;100162.34;131441;1253;107434;-84
2023/06/20 03:06:00;;;;;;;12.20;10.90;;;;;;;16.19;72.82;100157.91;131427;1253;107545;-83
2023/06/20 03:09:06;;;;;;;13.00;11.20;;;;;;;16.18;72.73;100157.81;131294;1254;107548;-84
2023/06/20 03:12:12;;;;;;;12.10;10.70;;;;;;;16.19;73.15;100153.93;131283;1253;107600;-78
2023/06/20 03:15:18;;;;;;;13.80;10.30;;;;;;;16.20;73.23;100155.67;130928;1250;107521;-77
2023/06/20 03:18:24;;;;;;;12.30;10.30;;;;;;;16.25;73.32;100157.20;131244;1251;107234;-77
2023/06/20 03:21:31;;;;;;;11.20;10.00;;;;;;;16.33;73.31;100155.52;131068;1249;107422;-77
2023/06/20 03:24:39;;;;;;;13.60;11.80;;;;;;;16.40;73.36;100162.12;131029;1253;107407;-78
2023/06/20 03:27:45;;;;;;;12.50;11.30;;;;;;;16.47;73.38;100161.00;130924;1267;107551;-77
2023/06/20 03:30:51;;;;;;;12.80;11.00;;;;;;;16.59;73.58;100165.84;130972;1250;106243;-77
2023/06/20 03:33:56;;;;;;;13.30;11.90;;;;;;;16.73;73.76;100162.98;131048;1254;107671;-77
2023/06/20 03:37:02;;;;;;;12.40;10.70;;;;;;;16.87;73.82;100163.94;131051;1256;107477;-77
2023/06/20 03:40:11;;;;;;;12.70;10.00;;;;;;;16.99;73.91;100167.71;131173;1251;107336;-78
2023/06/20 03:43:18;;;;;;;13.40;11.00;;;;;;;17.10;73.95;100169.73;130958;1256;107497;-78
2023/06/20 03:46:23;;;;;;;13.10;11.40;;;;;;;17.20;74.04;100176.91;131146;1253;107330;-77
2023/06/20 03:49:29;;;;;;;11.30;10.20;;;;;;;17.29;73.96;100176.67;130948;1251;107597;-77
2023/06/20 03:52:36;;;;;;;12.10;10.70;;;;;;;17.36;73.92;100175.52;130987;1253;107471;-78
2023/06/20 03:55:42;;;;;;;11.90;10.70;;;;;;;17.43;73.93;100174.81;131004;1253;106467;-78
2023/06/20 03:58:47;;;;;;;13.20;11.90;;;;;;;17.49;73.93;100178.56;130997;1253;106428;-77
2023/06/20 04:01:53;;;;;;;12.30;10.80;;;;;;;17.51;74.02;100180.77;131158;1253;107404;-77
2023/06/20 04:04:59;;;;;;;10.60;9.60;;;;;;;17.54;74.21;100181.67;131090;1256;108662;-77
2023/06/20 04:08:04;;;;;;;11.80;10.60;;;;;;;17.62;74.19;100183.86;131216;1253;107562;-77
2023/06/20 04:11:10;;;;;;;12.40;11.10;;;;;;;17.69;74.27;100184.76;131174;1253;106641;-78
2023/06/20 04:14:16;;;;;;;12.60;11.30;;;;;;;17.77;74.28;100189.11;131155;1253;107386;-78
2023/06/20 04:17:22;;;;;;;12.20;11.00;;;;;;;17.86;74.26;100192.28;130942;1256;107533;-78
2023/06/20 04:20:27;;;;;;;12.10;10.90;;;;;;;17.97;74.27;100198.44;130999;1264;106523;-78
2023/06/20 04:23:33;;;;;;;14.00;12.20;;;;;;;18.09;74.35;100195.19;130917;1256;107619;-78
2023/06/20 04:26:38;;;;;;;12.20;10.90;;;;;;;18.22;74.27;100193.21;130873;1250;107558;-78
2023/06/20 04:29:44;;;;;;;12.20;10.70;;;;;;;18.34;74.34;100196.94;130863;1251;107595;-78
2023/06/20 04:32:53;;;;;;;12.10;10.90;;;;;;;18.40;74.49;100197.48;131122;1253;106449;-77
2023/06/20 04:35:59;;;;;;;14.40;11.40;;;;;;;18.48;74.52;100195.54;131031;1253;107544;-78
2023/06/20 04:39:11;;;;;;;14.00;12.60;;;;;;;18.58;74.56;100198.17;130992;1253;107428;-78
2023/06/20 04:42:17;;;;;;;14.30;12.90;;;;;;;18.72;74.62;100197.17;131007;1256;107516;-78
2023/06/20 04:45:23;;;;;;;15.00;13.50;;;;;;;18.92;74.49;100200.64;131079;1253;107391;-78
2023/06/20 04:48:30;;;;;;;16.40;14.00;;;;;;;19.03;74.23;100202.21;131027;1256;107208;-78
2023/06/20 04:51:35;;;;;;;20.90;13.60;;;;;;;19.15;74.46;100202.15;130978;1251;107549;-78
2023/06/20 04:54:42;;;;;;;14.60;13.10;;;;;;;19.33;74.64;100201.58;130992;1256;108097;-78
2023/06/20 04:57:48;;;;;;;16.10;13.60;;;;;;;19.62;74.59;100196.67;130981;1253;107389;-78
2023/06/20 05:00:53;;;;;;;16.20;14.50;;;;;;;19.97;74.51;100198.12;131116;1250;106556;-78
2023/06/20 05:03:59;;;;;;;18.00;16.10;;;;;;;20.23;74.08;100201.77;131257;1253;107478;-78
2023/06/20 05:07:05;;;;;;;17.40;15.70;;;;;;;20.46;73.88;100200.70;131081;1253;106695;-77
2023/06/20 05:10:12;;;;;;;18.30;16.40;;;;;;;20.70;73.60;100198.16;131221;1253;107473;-78
2023/06/20 05:13:18;;;;;;;17.10;15.40;;;;;;;20.92;73.50;100195.61;131042;1253;107358;-77
2023/06/20 05:16:23;;;;;;;17.70;15.90;;;;;;;21.12;73.15;100198.17;130904;1254;106249;-77
2023/06/20 05:19:29;;;;;;;18.60;16.70;;;;;;;21.33;73.07;100201.30;130990;1256;107420;-76
2023/06/20 05:22:35;;;;;;;17.30;15.60;;;;;;;21.50;72.94;100204.77;130913;1257;107535;-76
2023/06/20 05:25:40;;;;;;;16.70;15.00;;;;;;;21.66;72.80;100208.09;130904;1256;107647;-76
2023/06/20 05:28:46;;;;;;;18.00;16.20;;;;;;;21.83;72.38;100207.96;131168;1256;109288;-77
2023/06/20 05:31:51;;;;;;;18.00;16.40;;;;;;;22.00;72.10;100207.33;131181;1251;107366;-77
2023/06/20 05:34:57;;;;;;;17.10;15.50;;;;;;;22.14;71.99;100204.84;131226;1256;107590;-76
2023/06/20 05:38:03;;;;;;;19.30;17.30;;;;;;;22.30;71.75;100201.42;131035;1256;106429;-76
2023/06/20 05:41:10;;;;;;;19.10;17.20;;;;;;;22.43;71.80;100199.05;131042;1254;108397;-77
2023/06/20 05:44:16;;;;;;;19.50;17.50;;;;;;;22.56;71.38;100196.17;131133;1250;107730;-76
2023/06/20 05:47:21;;;;;;;19.10;17.30;;;;;;;22.65;70.92;100198.52;130980;1254;107547;-77
2023/06/20 05:50:27;;;;;;;19.70;17.70;;;;;;;22.76;70.65;100197.30;131002;1255;107533;-76
2023/06/20 05:53:32;;;;;;;18.80;17.00;;;;;;;22.83;70.54;100199.83;130982;1251;106990;-77
2023/06/20 05:56:38;;;;;;;18.70;16.90;;;;;;;22.91;70.46;100201.15;130940;1254;107510;-77
2023/06/20 05:59:43;;;;;;;19.30;17.40;;;;;;;23.00;70.53;100199.58;130933;1256;107546;-76
2023/06/20 06:02:49;;;;;;;18.10;16.40;;;;;;;23.09;70.37;100198.39;130901;1256;107462;-77
2023/06/20 06:05:55;;;;;;;18.90;16.80;;;;;;;23.18;70.35;100199.63;131008;1251;106539;-77
2023/06/20 06:09:00;;;;;;;17.60;15.80;;;;;;;23.26;70.20;100197.46;130916;1250;107326;-76
2023/06/20 06:12:07;;;;;;;17.80;16.10;;;;;;;23.33;70.23;100198.71;130971;1250;106039;-76
2023/06/20 06:15:13;;;;;;;19.20;17.20;;;;;;;23.40;69.78;100202.89;131164;1257;107501;-77
2023/06/20 06:18:19;;;;;;;19.00;17.20;;;;;;;23.46;69.38;100200.80;131211;1256;106940;-76
2023/06/20 06:21:25;;;;;;;18.70;17.00;;;;;;;23.52;69.05;100201.40;130958;1256;107508;-77
2023/06/20 06:24:31;;;;;;;18.80;17.00;;;;;;;23.59;69.05;100199.84;131047;1255;106745;-76
2023/06/20 06:27:36;;;;;;;18.30;16.50;;;;;;;23.67;69.02;100203.66;130976;1250;107378;-76
2023/06/20 06:30:42;;;;;;;17.80;16.10;;;;;;;23.72;68.55;100204.42;131013;1256;108063;-76
2023/06/20 06:33:48;;;;;;;17.50;15.80;;;;;;;23.76;68.18;100206.70;131125;1256;107541;-77
2023/06/20 06:36:54;;;;;;;18.10;16.30;;;;;;;23.81;67.99;100206.00;130915;1256;107553;-77
2023/06/20 06:40:00;;;;;;;17.30;15.70;;;;;;;23.84;68.08;100211.64;131010;1250;107472;-77
2023/06/20 06:43:05;;;;;;;16.70;15.00;;;;;;;23.89;67.88;100212.75;130954;1255;107568;-77
2023/06/20 06:46:14;;;;;;;17.90;16.30;;;;;;;23.95;67.67;100210.20;130916;1255;107640;-77
2023/06/20 06:49:19;;;;;;;18.00;16.30;;;;;;;24.01;67.88;100211.41;130984;1257;107724;-77
2023/06/20 06:52:25;;;;;;;17.10;15.50;;;;;;;24.07;67.70;100210.17;130922;1257;107236;-77
2023/06/20 06:55:30;;;;;;;16.10;14.70;;;;;;;24.11;66.92;100212.10;130937;1256;107503;-77
2023/06/20 06:58:36;;;;;;;16.30;14.80;;;;;;;24.16;66.47;100211.63;131131;1256;107321;-78
2023/06/20 07:01:41;;;;;;;15.10;13.80;;;;;;;24.19;66.08;100215.73;130956;1256;107585;-78
2023/06/20 07:04:47;;;;;;;15.40;14.00;;;;;;;24.25;65.86;100214.42;131215;1254;106942;-77
2023/06/20 07:07:53;;;;;;;15.60;14.10;;;;;;;24.29;65.11;100218.48;131180;1257;107558;-76
2023/06/20 07:10:58;;;;;;;14.00;12.70;;;;;;;24.35;64.62;100221.81;130992;1256;107284;-78
2023/06/20 07:14:04;;;;;;;13.20;12.00;;;;;;;24.40;64.17;100224.57;130929;1255;107514;-78
2023/06/20 07:17:09;;;;;;;13.10;12.00;;;;;;;24.45;63.21;100221.65;130829;1257;107522;-78
2023/06/20 07:20:17;;;;;;;13.90;12.70;;;;;;;24.50;62.93;100220.08;131026;1250;107526;-78
2023/06/20 07:23:24;;;;;;;13.40;12.10;;;;;;;24.58;62.99;100220.55;131109;1251;107351;-78
2023/06/20 07:26:30;;;;;;;13.20;12.10;;;;;;;24.66;62.62;100223.95;133201;1249;106861;-78
2023/06/20 07:29:36;;;;;;;12.20;11.10;;;;;;;24.71;62.40;100223.16;131134;1251;107488;-78
2023/06/20 07:32:41;;;;;;;12.80;11.60;;;;;;;24.79;61.99;100224.05;131198;1257;107254;-80
2023/06/20 07:35:47;;;;;;;13.40;12.10;;;;;;;24.85;61.34;100226.55;131192;1254;106053;-80
2023/06/20 07:38:53;;;;;;;12.50;11.30;;;;;;;24.94;61.43;100224.94;131158;1255;107515;-80
2023/06/20 07:41:59;;;;;;;11.50;10.40;;;;;;;25.00;61.05;100222.97;131158;1251;106698;-80
2023/06/20 07:45:05;;;;;;;10.90;10.00;;;;;;;25.07;60.49;100227.30;131263;1253;107464;-78
2023/06/20 07:48:10;;;;;;;11.30;10.30;;;;;;;25.14;60.23;100223.30;131026;1253;107587;-78
2023/06/20 07:51:16;;;;;;;10.50;9.40;;;;;;;25.22;59.91;100217.30;131029;1253;106559;-78
2023/06/20 07:54:22;;;;;;;9.50;8.60;;;;;;;25.28;59.28;100218.71;131049;1254;107267;-77
2023/06/20 07:57:27;;;;;;;10.20;9.20;;;;;;;25.34;58.92;100217.33;131007;1253;107569;-78
2023/06/20 08:00:33;;;;;;;10.30;9.40;;;;;;;25.40;57.83;100215.43;131004;1251;107991;-78
2023/06/20 08:03:39;;;;;;;9.90;9.10;;;;;;;25.45;58.63;100218.73;131073;1253;107482;-78
2023/06/20 08:06:44;;;;;;;10.40;9.40;;;;;;;25.56;58.75;100222.81;130890;1257;107653;-78
2023/06/20 08:09:50;;;;;;;11.30;10.20;;;;;;;25.67;58.75;100228.53;131003;1253;107551;-78
2023/06/20 08:12:55;;;;;;;10.60;9.70;;;;;;;25.76;58.33;100238.69;131001;1257;107228;-78
2023/06/20 08:16:01;;;;;;;9.90;8.80;;;;;;;25.83;57.89;100237.20;130964;1254;107427;-79
2023/06/20 08:19:06;;;;;;;7.90;7.20;;;;;;;25.90;57.04;100245.75;131105;1253;107608;-78
2023/06/20 08:22:12;;;;;;;7.30;6.70;;;;;;;25.95;56.72;100245.14;131070;1263;107400;-78
2023/06/20 08:25:18;;;;;;;7.90;7.20;;;;;;;26.05;55.96;100246.12;131253;1256;107476;-78
2023/06/20 08:28:26;;;;;;;9.10;8.40;;;;;;;26.11;55.84;100244.73;130978;1257;107999;-77
2023/06/20 08:31:37;;;;;;;8.60;7.80;;;;;;;26.09;50.91;100243.77;130957;1253;108279;-79
2023/06/20 08:34:42;;;;;;;9.40;8.50;;;;;;;26.11;54.57;100245.37;131081;1256;107508;-79
2023/06/20 08:37:48;;;;;;;9.90;8.00;;;;;;;26.22;55.09;100246.09;131069;1256;107545;-80
2023/06/20 08:40:54;;;;;;;8.40;7.70;;;;;;;26.33;54.69;100239.52;131014;1251;107559;-80
2023/06/20 08:44:00;;;;;;;8.40;7.70;;;;;;;26.39;54.87;100239.27;130956;1253;107671;-80
2023/06/20 08:47:06;;;;;;;7.80;7.10;;;;;;;26.48;54.94;100240.23;131221;1253;108654;-78
2023/06/20 08:50:12;;;;;;;7.30;6.60;;;;;;;26.53;53.83;100235.29;131059;1256;107074;-79
2023/06/20 08:53:20;;;;;;;7.30;6.70;;;;;;;26.56;53.73;100239.30;130980;1254;107511;-78
2023/06/20 08:56:26;;;;;;;7.20;6.60;;;;;;;26.59;52.58;100236.46;130984;1265;107827;-80
2023/06/20 08:59:31;;;;;;;7.50;6.90;;;;;;;26.60;52.87;100233.57;131260;1261;108120;-80
2023/06/20 09:02:37;;;;;;;7.60;7.00;;;;;;;26.68;52.75;100234.80;131197;1253;108002;-80
2023/06/20 09:05:45;;;;;;;7.90;7.20;;;;;;;26.74;52.50;100234.02;131367;1253;108671;-80
2023/06/20 09:08:52;;;;;;;8.40;7.60;;;;;;;26.80;52.23;100236.27;131248;1257;107262;-80
2023/06/20 09:11:59;;;;;;;6.70;6.00;;;;;;;26.83;51.39;100234.48;131218;1253;107524;-80
2023/06/20 09:15:07;;;;;;;7.00;6.40;;;;;;;26.83;50.88;100234.16;131082;1257;108085;-80
2023/06/20 09:18:16;;;;;;;7.10;6.50;;;;;;;26.82;50.41;100232.98;131222;1263;107507;-80
2023/06/20 09:21:21;;;;;;;6.90;6.10;;;;;;;26.82;49.61;100233.92;131434;1263;107125;-80
2023/06/20 09:24:27;;;;;;;6.70;6.10;;;;;;;26.84;49.37;100235.58;131341;1251;107533;-80
2023/06/20 09:27:37;;;;;;;7.80;6.40;;;;;;;26.88;49.56;100237.75;131109;1253;108591;-79
2023/06/20 09:30:45;;;;;;;6.70;6.10;;;;;;;26.91;49.21;100233.17;131134;1254;107136;-80
2023/06/20 09:33:51;;;;;;;6.00;5.50;;;;;;;26.94;48.59;100237.24;131345;1255;108448;-80
2023/06/20 09:37:00;;;;;;;6.40;5.90;;;;;;;26.99;49.00;100232.26;131237;1254;107486;-80
2023/06/20 09:40:10;;;;;;;6.30;5.70;;;;;;;27.06;48.93;100230.49;131075;1255;107364;-79
2023/06/20 09:43:16;;;;;;;5.70;5.20;;;;;;;27.08;47.83;100228.58;131131;1254;107499;-79
2023/06/20 09:46:21;;;;;;;6.50;5.50;;;;;;;27.11;48.26;100225.77;131134;1261;107347;-80
2023/06/20 09:49:27;;;;;;;5.70;5.20;;;;;;;27.18;47.64;100226.02;131339;1255;107451;-80
2023/06/20 09:52:39;;;;;;;5.80;5.30;;;;;;;27.25;47.93;100227.34;130994;1251;108708;-80
2023/06/20 09:55:45;;;;;;;5.80;5.30;;;;;;;27.29;47.35;100224.64;131124;1253;107516;-80
2023/06/20 09:58:54;;;;;;;6.40;5.40;;;;;;;27.31;47.26;100225.41;131251;1263;107890;-80
2023/06/20 10:02:02;;;;;;;7.50;5.40;;;;;;;27.36;46.87;100222.70;131133;1261;107500;-80
2023/06/20 10:05:09;;;;;;;5.70;5.20;;;;;;;27.38;46.24;100219.55;131172;1254;107491;-80
2023/06/20 10:08:17;;;;;;;4.60;4.20;;;;;;;27.42;46.04;100214.57;131127;1253;107442;-80
2023/06/20 10:11:24;;;;;;;4.50;4.10;;;;;;;27.48;45.65;100215.42;131135;1263;107618;-80
2023/06/20 10:14:32;;;;;;;4.20;3.80;;;;;;;27.54;45.22;100215.98;131203;1263;107343;-80
2023/06/20 10:17:42;;;;;;;4.70;4.30;;;;;;;27.59;44.82;100217.45;131398;1263;107408;-80
2023/06/20 10:20:48;;;;;;;6.60;4.70;;;;;;;27.64;44.34;100220.59;131498;1257;107236;-80
2023/06/20 10:23:53;;;;;;;5.30;4.90;;;;;;;27.65;44.11;100219.27;131371;1257;108095;-80
2023/06/20 10:27:03;;;;;;;5.50;5.00;;;;;;;27.69;44.32;100217.87;131107;1258;107344;-80
2023/06/20 10:30:11;;;;;;;5.20;4.70;;;;;;;27.76;44.14;100217.36;131300;1253;108945;-80
2023/06/20 10:33:18;;;;;;;5.30;4.90;;;;;;;27.81;43.51;100212.82;131185;1251;107582;-80
2023/06/20 10:36:33;;;;;;;5.40;4.90;;;;;;;27.81;42.34;100211.52;131361;1255;107571;-78
2023/06/20 10:39:39;;;;;;;4.90;4.50;;;;;;;27.74;39.69;100209.46;130959;1254;107471;-78
2023/06/20 10:42:45;;;;;;;5.60;5.20;;;;;;;27.76;42.09;100207.43;130962;1254;108628;-79
2023/06/20 10:45:58;;;;;;;5.40;4.90;;;;;;;27.82;42.18;100206.52;131016;1263;108793;-78
2023/06/20 10:49:04;;;;;;;5.70;5.20;;;;;;;27.87;40.97;100208.23;131057;1257;107490;-78
2023/06/20 10:52:10;;;;;;;6.50;5.90;;;;;;;27.89;40.05;100204.76;131035;1256;107558;-79
2023/06/20 10:55:22;;;;;;;6.20;5.70;;;;;;;27.88;41.30;100197.39;131277;1253;106707;-78
2023/06/20 10:58:28;;;;;;;6.30;5.70;;;;;;;27.97;42.15;100202.05;131318;1256;107581;-77
2023/06/20 11:01:36;;;;;;;5.10;4.70;;;;;;;28.01;40.99;100196.30;131312;1255;108085;-78
2023/06/20 11:04:42;;;;;;;5.80;5.10;;;;;;;28.04;41.48;100200.36;131338;1263;107426;-78
2023/06/20 11:07:59;;;;;;;6.00;5.40;;;;;;;28.07;41.14;100198.34;131291;1257;107257;-78
2023/06/20 11:11:06;;;;;;;5.90;5.40;;;;;;;28.07;40.38;100194.67;131323;1254;108051;-78
2023/06/20 11:14:16;;;;;;;6.50;6.00;;;;;;;28.13;41.26;100194.89;131303;1264;107330;-78
2023/06/20 11:17:24;;;;;;;6.00;5.50;;;;;;;28.20;41.49;100190.23;131262;1254;107483;-78
2023/06/20 11:20:30;;;;;;;6.20;5.70;;;;;;;28.24;40.92;100191.02;131349;1249;107363;-78
2023/06/20 11:23:36;;;;;;;6.60;5.90;;;;;;;28.24;41.04;100191.89;131253;1261;107229;-78
2023/06/20 11:26:42;;;;;;;7.90;6.60;;;;;;;28.28;41.50;100183.72;131282;1256;107545;-79
2023/06/20 11:29:47;;;;;;;6.60;6.10;;;;;;;28.34;41.58;100180.77;131308;1255;107509;-78
2023/06/20 11:33:04;;;;;;;6.60;6.00;;;;;;;28.39;41.30;100179.61;131314;1254;107345;-79
2023/06/20 11:36:10;;;;;;;6.10;5.60;;;;;;;28.43;41.21;100174.30;131323;1265;107493;-78
2023/06/20 11:39:16;;;;;;;6.80;6.20;;;;;;;28.50;41.41;100174.53;131198;1260;107535;-78
2023/06/20 11:42:21;;;;;;;7.30;6.70;;;;;;;28.55;41.25;100169.11;131088;1263;107618;-79
2023/06/20 11:45:29;;;;;;;6.60;6.10;;;;;;;28.61;40.41;100170.31;130987;1255;107366;-78
2023/06/20 11:48:35;;;;;;;6.30;5.80;;;;;;;28.60;40.55;100166.38;131004;1263;107581;-78
2023/06/20 11:51:41;;;;;;;6.50;5.90;;;;;;;28.61;40.45;100166.15;131094;1258;107606;-78
2023/06/20 11:54:51;;;;;;;6.40;5.90;;;;;;;28.65;40.48;100164.88;130985;1255;107501;-78
2023/06/20 11:57:57;;;;;;;6.50;6.00;;;;;;;28.67;40.31;100171.91;131018;1255;107491;-78
2023/06/20 12:01:08;;;;;;;6.40;5.80;;;;;;;28.69;40.54;100167.09;130995;1257;108118;-78
2023/06/20 12:04:19;;;;;;;6.50;6.00;;;;;;;28.71;39.99;100168.72;131124;1263;107461;-79
2023/06/20 12:07:25;;;;;;;6.50;6.00;;;;;;;28.70;39.49;100166.64;131211;1261;107495;-79
2023/06/20 12:10:31;;;;;;;6.60;5.80;;;;;;;28.69;38.79;100160.32;131181;1263;107424;-79
2023/06/20 12:13:36;;;;;;;6.80;6.20;;;;;;;28.64;38.23;100160.81;130973;1254;107427;-78
2023/06/20 12:16:42;;;;;;;6.70;6.10;;;;;;;28.65;39.28;100160.59;131022;1254;107507;-78
2023/06/20 12:19:53;;;;;;;7.00;6.40;;;;;;;28.67;38.72;100157.58;131038;1256;107510;-78
2023/06/20 12:22:58;;;;;;;6.60;6.10;;;;;;;28.69;38.89;100151.04;131304;1254;107976;-78
2023/06/20 12:26:04;;;;;;;6.50;5.90;;;;;;;28.74;39.26;100149.22;131141;1254;107523;-78
2023/06/20 12:29:09;;;;;;;6.80;6.10;;;;;;;28.78;38.85;100147.02;131014;1263;107999;-79
2023/06/20 12:32:15;;;;;;;6.40;5.90;;;;;;;28.80;38.70;100145.64;131151;1254;107525;-78
2023/06/20 12:35:20;;;;;;;6.70;6.00;;;;;;;28.77;38.66;100142.79;131052;1254;107138;-79
2023/06/20 12:38:26;;;;;;;6.60;6.10;;;;;;;28.78;39.05;100141.14;131009;1264;107236;-80
2023/06/20 12:41:36;;;;;;;6.60;5.90;;;;;;;28.82;38.80;100138.83;131267;1254;107549;-79
2023/06/20 12:44:42;;;;;;;6.50;5.90;;;;;;;28.83;38.76;100138.45;131088;1252;108001;-78
2023/06/20 12:47:48;;;;;;;6.60;6.00;;;;;;;28.84;38.43;100134.92;131036;1254;108361;-78
2023/06/20 12:50:54;;;;;;;6.90;6.30;;;;;;;28.86;38.64;100129.04;131258;1253;107609;-79
2023/06/20 12:54:00;;;;;;;7.10;6.50;;;;;;;28.89;38.49;100134.63;131026;1251;107530;-79
2023/06/20 12:57:06;;;;;;;6.60;6.10;;;;;;;28.89;37.94;100132.88;130964;1257;107543;-79
2023/06/20 13:00:14;;;;;;;6.60;6.00;;;;;;;28.89;37.37;100132.83;131022;1254;107517;-78
2023/06/20 13:03:19;;;;;;;6.90;6.30;;;;;;;28.89;37.84;100131.50;131047;1254;107337;-78
2023/06/20 13:06:25;;;;;;;7.50;6.90;;;;;;;28.90;37.95;100126.23;131160;1253;107548;-79
2023/06/20 13:09:32;;;;;;;7.20;6.60;;;;;;;28.96;38.42;100123.91;130995;1254;107558;-79
2023/06/20 13:12:39;;;;;;;7.00;6.40;;;;;;;28.95;37.49;100129.52;131007;1254;107475;-79
2023/06/20 13:15:45;;;;;;;6.60;5.90;;;;;;;28.88;37.09;100128.42;131011;1251;107230;-79
2023/06/20 13:18:52;;;;;;;6.30;5.80;;;;;;;28.90;37.82;100123.48;131067;1254;107339;-79
2023/06/20 13:21:58;;;;;;;6.50;5.90;;;;;;;28.95;37.68;100115.79;131030;1257;108094;-78
2023/06/20 13:25:05;;;;;;;6.40;5.90;;;;;;;28.97;37.50;100119.73;130979;1254;107503;-79
2023/06/20 13:28:10;;;;;;;6.70;6.20;;;;;;;29.01;37.47;100115.93;131199;1255;107415;-79
2023/06/20 13:31:16;;;;;;;7.10;6.20;;;;;;;29.04;38.02;100114.15;131071;1254;109286;-79
2023/06/20 13:34:22;;;;;;;6.40;5.80;;;;;;;29.08;37.59;100111.46;131268;1264;108620;-79
2023/06/20 13:37:28;;;;;;;7.90;7.20;;;;;;;29.10;37.35;100112.33;131209;1262;107524;-79
2023/06/20 13:40:33;;;;;;;6.70;6.10;;;;;;;29.13;37.55;100110.38;131085;1265;107311;-79
2023/06/20 13:43:39;;;;;;;6.80;6.00;;;;;;;29.17;37.66;100108.05;130982;1255;107276;-79
2023/06/20 13:46:44;;;;;;;6.90;6.10;;;;;;;29.17;36.95;100110.36;130966;1255;107701;-79
2023/06/20 13:49:50;;;;;;;6.40;5.90;;;;;;;29.16;36.93;100103.23;131064;1255;107552;-79
2023/06/20 13:52:55;;;;;;;6.60;6.00;;;;;;;29.16;36.88;100102.34;130971;1254;107604;-78
2023/06/20 13:56:01;;;;;;;6.90;6.30;;;;;;;29.18;37.23;100096.02;130922;1252;107541;-79
2023/06/20 13:59:07;;;;;;;6.90;6.30;;;;;;;29.22;37.00;100098.41;130973;1264;107297;-79